Allendale, Wyoming
Current Conditions -  °F | °C
As of 1:53 PM on Tuesday 21 Oct 2014 (Local Time) from KCPR Reporting Station
Clear Clear  
Wind Chill: 73°   Ceiling: Unl
Heat Index: 73°   Visibility: 10mi
Dew Point: 37°   Wind: 25mph
Humidity: 27%   Direction: 220°SW
Pressure: 29.86"   Gusts: 31mph
Location:  42.84°N, 106.275°W
Report Text: KCPR 211953Z AUTO 22022G27KT 10SM CLR 23/03 A2986 RMK AO2 PK WND 22028/1910 SLP053 T02280028
Loading
Personal Weather Stations






























Interactive Weather Map
Tropical Storm Tracking
New forecast layout! Learn more

10-Day Weather Forecast

Advertisements
Track Severe Weather on mobile